createdAt,value
2023-02-23T00:02:23.498Z,62.40
2023-02-23T00:04:56.073Z,62.23
2023-02-23T00:07:27.991Z,62.25
2023-02-23T00:10:01.959Z,62.42
2023-02-23T00:12:34.847Z,62.41
2023-02-23T00:15:08.052Z,62.58
2023-02-23T00:17:41.320Z,62.65
2023-02-23T00:20:17.650Z,62.77
2023-02-23T00:22:51.511Z,62.92
2023-02-23T00:25:24.333Z,62.98
2023-02-23T00:27:56.138Z,62.80
2023-02-23T00:30:28.490Z,62.64
2023-02-23T00:33:00.103Z,62.91
2023-02-23T00:35:33.123Z,62.91
2023-02-23T00:38:05.460Z,62.93
2023-02-23T00:40:37.496Z,63.07
2023-02-23T00:43:09.172Z,62.59
2023-02-23T00:45:40.891Z,63.14
2023-02-23T00:48:13.383Z,63.43
2023-02-23T00:50:45.154Z,63.62
2023-02-23T00:53:17.138Z,63.45
2023-02-23T00:55:48.678Z,63.06
2023-02-23T00:58:21.398Z,62.90
2023-02-23T01:00:54.233Z,62.92
2023-02-23T01:03:26.713Z,63.33
2023-02-23T01:06:00.804Z,63.31
2023-02-23T01:08:33.056Z,62.91
2023-02-23T01:11:10.443Z,62.67
2023-02-23T01:13:43.745Z,62.09
2023-02-23T01:16:17.454Z,61.30
2023-02-23T01:18:50.317Z,61.68
2023-02-23T01:21:24.278Z,62.54
2023-02-23T01:23:57.147Z,62.95
2023-02-23T01:26:31.017Z,62.69
2023-02-23T01:29:06.043Z,62.62
2023-02-23T01:31:38.354Z,62.67
2023-02-23T01:34:13.010Z,62.64
2023-02-23T01:36:46.101Z,62.60
2023-02-23T01:39:20.248Z,62.96
2023-02-23T01:41:54.550Z,63.50
2023-02-23T01:45:00.702Z,63.08
2023-02-23T01:47:32.747Z,63.20
2023-02-23T01:50:05.299Z,63.61
2023-02-23T01:52:38.027Z,63.93
2023-02-23T01:55:13.834Z,63.31
2023-02-23T01:57:45.898Z,63.18
2023-02-23T02:00:25.890Z,63.27
2023-02-23T02:03:00.154Z,63.67
2023-02-23T02:05:32.244Z,63.47
2023-02-23T02:08:06.746Z,63.66
2023-02-23T02:10:47.652Z,63.22
2023-02-23T02:13:25.806Z,62.95
2023-02-23T02:16:23.724Z,62.38
2023-02-23T02:19:17.162Z,62.41
2023-02-23T02:22:28.723Z,62.68
2023-02-23T02:25:26.020Z,63.27
2023-02-23T02:28:25.035Z,63.34
2023-02-23T02:31:20.189Z,63.35
2023-02-23T02:34:25.501Z,63.02
2023-02-23T02:37:34.818Z,63.37
2023-02-23T02:40:18.344Z,63.17
2023-02-23T02:43:11.816Z,63.11
2023-02-23T02:45:54.960Z,62.88
2023-02-23T02:48:37.019Z,62.89
2023-02-23T02:51:18.808Z,63.38
2023-02-23T02:53:59.450Z,63.67
2023-02-23T02:56:33.857Z,63.88
2023-02-23T02:59:06.776Z,63.98
2023-02-23T03:01:56.288Z,64.46
2023-02-23T03:04:48.433Z,64.09
2023-02-23T03:07:45.418Z,63.71
2023-02-23T03:10:44.117Z,63.61
2023-02-23T03:13:48.783Z,63.68
2023-02-23T03:16:47.460Z,63.42
2023-02-23T03:19:40.911Z,63.43
2023-02-23T03:22:37.403Z,63.87
2023-02-23T03:25:34.166Z,64.25
2023-02-23T03:28:32.432Z,64.11
2023-02-23T03:31:28.917Z,64.17
2023-02-23T03:34:28.089Z,63.91
2023-02-23T03:37:22.175Z,64.34
2023-02-23T03:40:18.869Z,64.33
2023-02-23T03:43:12.591Z,64.23
2023-02-23T03:46:05.440Z,63.95
2023-02-23T03:48:56.438Z,64.05
2023-02-23T03:51:48.265Z,64.04
2023-02-23T03:54:42.751Z,64.24
2023-02-23T03:57:35.967Z,63.99
2023-02-23T04:00:31.487Z,63.89
2023-02-23T04:03:20.113Z,63.97
2023-02-23T04:06:12.107Z,63.85
2023-02-23T04:09:02.432Z,63.66
2023-02-23T04:11:57.387Z,64.19
2023-02-23T04:14:34.854Z,64.11
2023-02-23T04:17:07.532Z,64.12
2023-02-23T04:19:39.870Z,64.05
2023-02-23T04:22:12.400Z,64.48
2023-02-23T04:24:44.572Z,64.54
2023-02-23T04:27:16.960Z,64.60
2023-02-23T04:29:50.595Z,64.92
2023-02-23T04:32:25.208Z,64.78
2023-02-23T04:34:58.012Z,64.83
2023-02-23T04:37:30.187Z,64.82
2023-02-23T04:40:02.472Z,64.93
2023-02-23T04:42:34.448Z,64.69
2023-02-23T04:45:06.880Z,64.46
2023-02-23T04:47:39.363Z,64.72
2023-02-23T04:50:14.827Z,64.52
2023-02-23T04:52:48.182Z,64.89
2023-02-23T04:55:23.567Z,64.89
2023-02-23T04:57:59.345Z,65.06
2023-02-23T05:00:31.828Z,65.16
2023-02-23T05:03:04.064Z,65.54
2023-02-23T05:05:36.870Z,65.53
2023-02-23T05:08:10.083Z,65.83
2023-02-23T05:10:42.431Z,66.02
2023-02-23T05:13:14.362Z,66.18
2023-02-23T05:15:45.971Z,66.20
2023-02-23T05:18:17.658Z,65.99
2023-02-23T05:20:50.083Z,66.07
2023-02-23T05:23:23.461Z,66.24
2023-02-23T05:25:55.199Z,66.50
2023-02-23T05:28:27.728Z,66.56
2023-02-23T05:31:01.230Z,66.24
2023-02-23T05:33:33.393Z,65.96
2023-02-23T05:36:08.471Z,66.09
2023-02-23T05:38:40.266Z,66.39
2023-02-23T05:41:13.727Z,66.66
2023-02-23T05:43:45.477Z,66.55
2023-02-23T05:46:19.923Z,66.58
2023-02-23T05:48:52.605Z,66.81
2023-02-23T05:51:24.568Z,66.70
2023-02-23T05:53:56.358Z,66.77
2023-02-23T05:56:28.188Z,66.64
2023-02-23T05:59:02.810Z,66.85
2023-02-23T06:01:34.970Z,67.05
2023-02-23T06:04:08.424Z,67.18
2023-02-23T06:06:40.327Z,67.27
2023-02-23T06:09:13.041Z,67.50
2023-02-23T06:11:46.042Z,67.82
2023-02-23T06:14:18.006Z,67.47
2023-02-23T06:16:50.594Z,67.65
2023-02-23T06:19:23.502Z,67.48
2023-02-23T06:21:55.332Z,67.20
2023-02-23T06:24:28.740Z,67.52
2023-02-23T06:27:01.461Z,67.15
2023-02-23T06:29:34.173Z,67.05
2023-02-23T06:32:06.370Z,67.07
2023-02-23T06:34:38.777Z,67.06
2023-02-23T06:37:10.802Z,66.71
2023-02-23T06:39:42.580Z,66.57
2023-02-23T06:42:14.538Z,66.37
2023-02-23T06:44:46.357Z,66.21
2023-02-23T06:47:18.782Z,66.53
2023-02-23T06:49:50.503Z,66.70
2023-02-23T06:52:22.200Z,66.89
2023-02-23T06:54:55.102Z,66.51
2023-02-23T06:57:26.877Z,66.44
2023-02-23T06:59:58.551Z,66.50
2023-02-23T07:02:30.670Z,66.20
2023-02-23T07:05:03.684Z,65.95
2023-02-23T07:07:36.751Z,66.04
2023-02-23T07:10:11.213Z,66.21
2023-02-23T07:12:43.108Z,65.86
2023-02-23T07:15:19.200Z,65.03
2023-02-23T07:17:53.127Z,63.93
2023-02-23T07:20:24.902Z,63.86
2023-02-23T07:22:56.598Z,63.97
2023-02-23T07:25:28.644Z,63.87
2023-02-23T07:28:00.656Z,63.53
2023-02-23T07:30:32.915Z,63.39
2023-02-23T07:33:06.185Z,63.12
2023-02-23T07:35:38.087Z,63.06
2023-02-23T07:38:10.178Z,63.17
2023-02-23T07:40:42.895Z,63.03
2023-02-23T07:43:14.482Z,63.44
2023-02-23T07:45:46.854Z,63.80
2023-02-23T07:48:19.365Z,63.89
2023-02-23T07:50:51.036Z,63.94
2023-02-23T07:53:22.890Z,64.26
2023-02-23T07:56:01.166Z,64.59
2023-02-23T07:58:33.906Z,65.00
2023-02-23T08:01:06.904Z,64.82
2023-02-23T08:03:39.235Z,64.87
2023-02-23T08:06:12.129Z,64.22
2023-02-23T08:08:43.965Z,63.61
2023-02-23T08:11:16.670Z,63.05
2023-02-23T08:13:48.530Z,62.21
2023-02-23T08:16:20.350Z,62.09
2023-02-23T08:18:52.783Z,62.10
2023-02-23T08:21:24.650Z,62.29
2023-02-23T08:23:56.415Z,62.42
2023-02-23T08:26:29.183Z,61.99
2023-02-23T08:29:02.387Z,62.29
2023-02-23T08:31:34.680Z,62.52
2023-02-23T08:34:06.827Z,62.33
2023-02-23T08:36:40.807Z,62.53
2023-02-23T08:39:13.401Z,62.57
2023-02-23T08:41:45.754Z,62.56
2023-02-23T08:44:17.355Z,62.34
2023-02-23T08:46:49.020Z,62.01
2023-02-23T08:49:21.834Z,62.00
2023-02-23T08:51:53.454Z,62.00
2023-02-23T08:54:25.858Z,61.74
2023-02-23T08:56:59.874Z,61.72
2023-02-23T08:59:32.868Z,61.84
2023-02-23T09:02:05.737Z,61.55
2023-02-23T09:04:37.813Z,60.91
2023-02-23T09:07:10.545Z,60.75
2023-02-23T09:09:42.447Z,61.16
2023-02-23T09:12:14.446Z,61.23
2023-02-23T09:14:47.580Z,61.46
2023-02-23T09:17:20.537Z,61.45
2023-02-23T09:19:53.495Z,60.88
2023-02-23T09:22:26.411Z,60.70
2023-02-23T09:24:59.144Z,60.53
2023-02-23T09:27:31.097Z,60.90
2023-02-23T09:30:03.505Z,61.05
2023-02-23T09:32:35.157Z,61.04
2023-02-23T09:35:07.320Z,61.19
2023-02-23T09:37:39.754Z,61.31
2023-02-23T09:40:18.829Z,60.86
2023-02-23T09:43:00.847Z,60.97
2023-02-23T09:45:40.207Z,61.01
2023-02-23T09:48:17.935Z,61.07
2023-02-23T09:50:52.911Z,61.11
2023-02-23T09:53:49.339Z,60.87
2023-02-23T09:56:26.697Z,60.97
2023-02-23T09:58:58.657Z,60.96
2023-02-23T10:02:02.000Z,60.50
2023-02-23T10:04:38.456Z,60.24
2023-02-23T10:07:16.341Z,60.50
2023-02-23T10:09:59.439Z,60.74
2023-02-23T10:12:36.856Z,60.69
2023-02-23T10:15:26.381Z,60.45
2023-02-23T10:18:11.090Z,60.51
2023-02-23T10:20:52.565Z,60.34
2023-02-23T10:23:31.359Z,60.42
2023-02-23T10:26:05.261Z,60.54
2023-02-23T10:28:39.366Z,60.26
2023-02-23T10:31:29.887Z,60.44
2023-02-23T10:34:05.436Z,60.50
2023-02-23T10:36:44.257Z,60.12
2023-02-23T10:39:17.039Z,60.30
2023-02-23T10:41:48.965Z,60.48
2023-02-23T10:44:23.403Z,60.34
2023-02-23T10:47:00.052Z,60.45
2023-02-23T10:49:40.776Z,60.07
2023-02-23T10:52:16.450Z,59.87
2023-02-23T10:54:50.076Z,60.02
2023-02-23T10:57:30.127Z,59.73
2023-02-23T11:00:30.850Z,59.63
2023-02-23T11:03:04.923Z,59.95
2023-02-23T11:05:45.689Z,59.92
2023-02-23T11:08:29.667Z,59.69
2023-02-23T11:11:22.474Z,59.27
2023-02-23T11:13:54.845Z,58.84
2023-02-23T11:16:28.996Z,59.20
2023-02-23T11:19:03.697Z,59.65
2023-02-23T11:21:39.137Z,59.52
2023-02-23T11:24:24.136Z,59.64
2023-02-23T11:27:00.778Z,59.63
2023-02-23T11:29:35.760Z,59.21
2023-02-23T11:32:13.957Z,59.49
2023-02-23T11:34:49.367Z,59.33
2023-02-23T11:37:25.314Z,59.30
2023-02-23T11:39:59.297Z,58.73
2023-02-23T11:42:33.739Z,58.35
2023-02-23T11:45:20.947Z,58.92
2023-02-23T11:47:55.060Z,58.80
2023-02-23T11:50:30.262Z,58.69
2023-02-23T11:53:06.090Z,58.83
2023-02-23T11:55:40.619Z,58.06
2023-02-23T11:58:23.020Z,57.59
2023-02-23T12:01:02.571Z,57.88
2023-02-23T12:03:37.286Z,57.79
2023-02-23T12:06:10.826Z,57.88
2023-02-23T12:08:52.705Z,57.65
2023-02-23T12:11:28.333Z,57.63
2023-02-23T12:14:09.017Z,57.47
2023-02-23T12:16:45.179Z,57.37
2023-02-23T12:19:27.088Z,57.25
2023-02-23T12:22:06.052Z,57.63
2023-02-23T12:24:46.912Z,57.70
2023-02-23T12:27:22.946Z,56.97
2023-02-23T12:30:09.281Z,56.80
2023-02-23T12:32:51.631Z,57.36
2023-02-23T12:35:28.524Z,57.59
2023-02-23T12:38:07.032Z,57.28
2023-02-23T12:40:42.471Z,57.67
2023-02-23T12:43:25.241Z,57.64
2023-02-23T12:46:06.690Z,57.72
2023-02-23T12:48:51.283Z,58.15
2023-02-23T12:51:35.228Z,57.76
2023-02-23T12:54:10.733Z,57.07
2023-02-23T12:56:56.642Z,57.19
2023-02-23T12:59:53.816Z,57.02
2023-02-23T13:02:32.708Z,56.93
2023-02-23T13:05:25.015Z,56.94
2023-02-23T13:08:13.266Z,56.62
2023-02-23T13:10:53.283Z,56.92
2023-02-23T13:13:35.792Z,56.85
2023-02-23T13:16:17.391Z,57.14
2023-02-23T13:18:53.545Z,57.34
2023-02-23T13:21:31.894Z,57.71
2023-02-23T13:24:07.898Z,57.42
2023-02-23T13:26:48.977Z,57.40
2023-02-23T13:29:37.969Z,56.83
2023-02-23T13:32:16.417Z,56.88
2023-02-23T13:34:54.994Z,57.44
2023-02-23T13:37:35.221Z,57.38
2023-02-23T13:40:24.189Z,57.31
2023-02-23T13:43:07.375Z,57.18
2023-02-23T13:45:50.453Z,57.25
2023-02-23T13:48:31.690Z,56.95
2023-02-23T13:51:08.967Z,56.89
2023-02-23T13:53:47.337Z,56.60
2023-02-23T13:56:23.863Z,56.19
2023-02-23T13:59:01.144Z,56.48
2023-02-23T14:01:37.642Z,56.69
2023-02-23T14:04:15.840Z,56.83
2023-02-23T14:06:58.721Z,56.76
2023-02-23T14:09:37.400Z,56.13
2023-02-23T14:12:19.722Z,56.05
2023-02-23T14:14:51.466Z,56.39
2023-02-23T14:17:56.796Z,55.77
2023-02-23T14:20:54.534Z,56.31
2023-02-23T14:24:03.288Z,56.34
2023-02-23T14:26:47.212Z,56.19
2023-02-23T14:29:33.565Z,56.52
2023-02-23T14:32:32.758Z,56.40
2023-02-23T14:35:06.163Z,56.40
2023-02-23T14:37:39.218Z,56.50
2023-02-23T14:40:19.163Z,56.61
2023-02-23T14:42:54.534Z,56.49
2023-02-23T14:45:29.099Z,56.32
2023-02-23T14:48:08.811Z,56.60
2023-02-23T14:50:41.809Z,56.69
2023-02-23T14:53:21.378Z,56.94
2023-02-23T14:55:53.143Z,56.62
2023-02-23T14:58:28.470Z,56.48
2023-02-23T15:01:00.251Z,56.42
2023-02-23T15:03:32.204Z,56.31
2023-02-23T15:06:04.494Z,56.64
2023-02-23T15:08:41.108Z,57.18
2023-02-23T15:11:16.422Z,57.25
2023-02-23T15:13:52.808Z,57.45
2023-02-23T15:16:29.450Z,57.29
2023-02-23T15:19:36.967Z,56.90
2023-02-23T15:22:09.481Z,57.24
2023-02-23T15:24:50.031Z,57.27
2023-02-23T15:27:27.367Z,57.15
2023-02-23T15:30:19.038Z,57.01
2023-02-23T15:32:51.138Z,56.92
2023-02-23T15:35:24.352Z,57.12
2023-02-23T15:38:07.670Z,57.64
2023-02-23T15:40:49.141Z,57.77
2023-02-23T15:43:21.186Z,58.02
2023-02-23T15:45:55.807Z,58.17
2023-02-23T15:48:33.818Z,58.17
2023-02-23T15:51:06.216Z,58.18
2023-02-23T15:53:42.318Z,58.14
2023-02-23T15:56:18.532Z,57.99
2023-02-23T15:58:57.505Z,58.19
2023-02-23T16:01:33.157Z,58.26
2023-02-23T16:04:11.186Z,58.40
2023-02-23T16:06:51.520Z,58.54
2023-02-23T16:09:32.510Z,58.84
2023-02-23T16:12:11.194Z,58.79
2023-02-23T16:14:53.447Z,58.87
2023-02-23T16:17:41.630Z,58.95
2023-02-23T16:20:21.369Z,59.21
2023-02-23T16:22:55.599Z,59.70
2023-02-23T16:25:30.306Z,59.57
2023-02-23T16:28:03.242Z,59.30
2023-02-23T16:30:45.065Z,59.50
2023-02-23T16:33:24.236Z,59.63
2023-02-23T16:36:15.037Z,59.71
2023-02-23T16:38:59.569Z,59.42
2023-02-23T16:41:34.365Z,59.23
2023-02-23T16:44:06.287Z,59.39
2023-02-23T16:47:11.775Z,59.48
2023-02-23T16:49:44.048Z,59.69
2023-02-23T16:52:23.167Z,59.92
2023-02-23T16:54:56.429Z,60.22
2023-02-23T16:57:37.554Z,60.31
2023-02-23T17:00:18.528Z,60.75
2023-02-23T17:02:52.659Z,61.16
2023-02-23T17:05:26.168Z,61.22
2023-02-23T17:07:59.390Z,61.43
2023-02-23T17:10:37.961Z,61.87
2023-02-23T17:13:21.965Z,62.01
2023-02-23T17:16:01.155Z,62.19
2023-02-23T17:18:36.428Z,62.04
2023-02-23T17:21:11.898Z,62.46
2023-02-23T17:23:51.419Z,62.66
2023-02-23T17:26:29.687Z,62.79
2023-02-23T17:29:04.276Z,63.14
2023-02-23T17:31:41.248Z,63.11
2023-02-23T17:34:14.728Z,63.19
2023-02-23T17:36:48.661Z,63.58
2023-02-23T17:39:28.727Z,63.41
2023-02-23T17:42:03.164Z,63.19
2023-02-23T17:44:39.796Z,63.46
2023-02-23T17:47:13.747Z,63.76
2023-02-23T17:49:50.340Z,64.09
2023-02-23T17:52:29.408Z,64.14
2023-02-23T17:55:04.223Z,64.36
2023-02-23T17:57:35.048Z,64.43
2023-02-23T18:00:13.593Z,64.34
2023-02-23T18:02:49.204Z,64.55
2023-02-23T18:05:25.683Z,64.68
2023-02-23T18:07:59.533Z,64.86
2023-02-23T18:10:38.786Z,64.82
2023-02-23T18:13:11.942Z,64.92
2023-02-23T18:15:50.712Z,64.73
2023-02-23T18:18:27.802Z,64.89
2023-02-23T18:21:03.812Z,64.98
2023-02-23T18:23:50.221Z,65.04
2023-02-23T18:26:26.144Z,64.95
2023-02-23T18:28:59.721Z,64.76
2023-02-23T18:31:36.274Z,64.77
2023-02-23T18:34:10.352Z,64.99
2023-02-23T18:36:46.342Z,64.81
2023-02-23T18:39:20.551Z,65.25
2023-02-23T18:41:57.638Z,65.24
2023-02-23T18:44:35.163Z,65.02
2023-02-23T18:47:09.387Z,65.23
2023-02-23T18:49:44.630Z,65.13
2023-02-23T18:52:20.180Z,65.20
2023-02-23T18:54:57.522Z,65.03
2023-02-23T18:57:34.309Z,65.14
2023-02-23T19:00:14.432Z,65.39
2023-02-23T19:02:51.558Z,65.56
2023-02-23T19:05:28.426Z,65.47
2023-02-23T19:08:04.881Z,65.75
2023-02-23T19:10:39.905Z,65.69
2023-02-23T19:13:15.290Z,65.82
2023-02-23T19:15:50.879Z,65.86
2023-02-23T19:18:26.816Z,65.80
2023-02-23T19:21:04.946Z,65.70
2023-02-23T19:23:49.893Z,66.18
2023-02-23T19:26:25.768Z,66.34
2023-02-23T19:29:02.423Z,66.14
2023-02-23T19:31:36.410Z,65.95
2023-02-23T19:34:13.827Z,66.42
2023-02-23T19:36:49.197Z,66.17
2023-02-23T19:39:22.837Z,66.02
2023-02-23T19:41:58.340Z,66.33
2023-02-23T19:44:33.823Z,66.30
2023-02-23T19:47:09.968Z,66.38
2023-02-23T19:49:48.493Z,66.20
2023-02-23T19:52:22.256Z,66.51
2023-02-23T19:54:57.096Z,66.57
2023-02-23T19:57:29.485Z,66.56
2023-02-23T20:00:04.929Z,66.64
2023-02-23T20:02:44.240Z,66.76
2023-02-23T20:05:28.674Z,66.71
2023-02-23T20:08:01.282Z,66.76
2023-02-23T20:10:45.773Z,66.61
2023-02-23T20:13:19.542Z,66.79
2023-02-23T20:16:03.217Z,66.98
2023-02-23T20:18:39.638Z,67.19
2023-02-23T20:21:21.169Z,67.04
2023-02-23T20:23:57.465Z,66.82
2023-02-23T20:26:35.631Z,66.83
2023-02-23T20:29:19.868Z,66.88
2023-02-23T20:32:00.978Z,67.03
2023-02-23T20:34:40.221Z,67.14
2023-02-23T20:37:16.513Z,67.36
2023-02-23T20:39:50.115Z,67.45
2023-02-23T20:42:23.361Z,67.38
2023-02-23T20:45:02.057Z,67.44
2023-02-23T20:47:39.071Z,67.23
2023-02-23T20:50:15.304Z,67.20
2023-02-23T20:52:51.220Z,67.58
2023-02-23T20:55:28.210Z,67.62
2023-02-23T20:58:05.200Z,67.60
2023-02-23T21:00:55.902Z,68.00
2023-02-23T21:03:39.033Z,67.89
2023-02-23T21:06:12.754Z,67.73
2023-02-23T21:08:49.467Z,67.73
2023-02-23T21:11:29.932Z,67.71
2023-02-23T21:14:02.138Z,67.93
2023-02-23T21:16:36.932Z,67.53
2023-02-23T21:19:09.732Z,67.62
2023-02-23T21:21:46.875Z,68.23
2023-02-23T21:24:22.165Z,68.75
2023-02-23T21:26:55.040Z,68.83
2023-02-23T21:29:29.786Z,68.84
2023-02-23T21:32:01.702Z,68.68
2023-02-23T21:34:34.740Z,68.50
2023-02-23T21:37:07.898Z,68.57
2023-02-23T21:39:41.799Z,68.84
2023-02-23T21:42:14.783Z,68.84
2023-02-23T21:44:47.828Z,68.99
2023-02-23T21:47:20.496Z,68.84
2023-02-23T21:49:55.539Z,68.61
2023-02-23T21:52:27.676Z,68.52
2023-02-23T21:55:03.864Z,68.54
2023-02-23T21:57:38.765Z,68.59
2023-02-23T22:00:21.161Z,68.53
2023-02-23T22:02:53.975Z,68.87
2023-02-23T22:05:25.741Z,68.52
2023-02-23T22:07:58.521Z,68.62
2023-02-23T22:10:32.597Z,68.93
2023-02-23T22:13:05.109Z,68.89
2023-02-23T22:15:36.910Z,68.99
2023-02-23T22:18:09.659Z,68.43
2023-02-23T22:20:44.688Z,68.47
2023-02-23T22:23:16.476Z,68.76
2023-02-23T22:25:48.552Z,68.73
2023-02-23T22:28:20.859Z,68.54
2023-02-23T22:30:52.597Z,68.82
2023-02-23T22:33:25.137Z,68.96
2023-02-23T22:35:58.847Z,69.12
2023-02-23T22:38:31.768Z,69.06
2023-02-23T22:41:07.740Z,68.91
2023-02-23T22:43:40.844Z,68.94
2023-02-23T22:46:14.259Z,69.05
2023-02-23T22:48:47.031Z,69.20
2023-02-23T22:51:21.469Z,68.88
2023-02-23T22:53:51.730Z,68.86
2023-02-23T22:56:24.166Z,69.07
2023-02-23T22:59:05.006Z,69.38
2023-02-23T23:01:38.865Z,69.73
2023-02-23T23:04:11.782Z,69.69
2023-02-23T23:06:46.589Z,69.53
2023-02-23T23:09:16.972Z,69.80
2023-02-23T23:11:51.231Z,69.00
2023-02-23T23:14:23.754Z,69.34
2023-02-23T23:16:55.592Z,69.35
2023-02-23T23:19:27.691Z,69.53
2023-02-23T23:22:00.759Z,69.51
2023-02-23T23:24:32.856Z,69.53
2023-02-23T23:27:08.560Z,69.74
2023-02-23T23:29:41.471Z,69.89
2023-02-23T23:32:17.549Z,70.00
2023-02-23T23:34:51.143Z,69.65
2023-02-23T23:37:23.978Z,69.66
2023-02-23T23:40:02.537Z,69.71
2023-02-23T23:42:35.201Z,69.67
2023-02-23T23:45:10.015Z,69.80
2023-02-23T23:47:39.906Z,70.10
2023-02-23T23:50:13.894Z,69.59
2023-02-23T23:52:47.841Z,69.79
2023-02-23T23:55:20.911Z,69.76
2023-02-23T23:57:52.632Z,69.48
